createdAt,value
2024-02-20T00:03:56.425Z,101486.56
2024-02-20T00:08:57.975Z,101493.34
2024-02-20T00:13:59.753Z,101487.41
2024-02-20T00:19:02.163Z,101486.63
2024-02-20T00:24:03.926Z,101485.81
2024-02-20T00:29:05.740Z,101487.56
2024-02-20T00:34:07.417Z,101494.38
2024-02-20T00:39:08.982Z,101485.94
2024-02-20T00:44:12.763Z,101491.88
2024-02-20T00:49:14.461Z,101493.59
2024-02-20T00:54:16.369Z,101491.91
2024-02-20T00:59:17.955Z,101491.09
2024-02-20T01:04:19.573Z,101479.25
2024-02-20T01:09:21.230Z,101483.56
2024-02-20T01:14:22.902Z,101492.91
2024-02-20T01:19:24.620Z,101494.66
2024-02-20T01:24:26.316Z,101503.19
2024-02-20T01:29:27.868Z,101493.97
2024-02-20T01:34:29.612Z,101509.25
2024-02-20T01:39:31.267Z,101505.88
2024-02-20T01:44:34.252Z,101514.34
2024-02-20T01:49:36.491Z,101520.25
2024-02-20T01:54:42.715Z,101525.31
2024-02-20T01:59:45.019Z,101530.41
2024-02-20T02:04:47.005Z,101532.06
2024-02-20T02:09:48.738Z,101536.25
2024-02-20T02:14:50.393Z,101539.63
2024-02-20T02:19:52.401Z,101537.09
2024-02-20T02:25:02.117Z,101549.78
2024-02-20T02:30:06.243Z,101552.31
2024-02-20T02:35:10.938Z,101552.31
2024-02-20T02:40:13.474Z,101558.25
2024-02-20T02:45:15.235Z,101565.88
2024-02-20T02:50:17.107Z,101570.13
2024-02-20T02:55:22.250Z,101578.63
2024-02-20T03:00:23.852Z,101582.09
2024-02-20T03:05:25.441Z,101581.25
2024-02-20T03:10:27.578Z,101585.47
2024-02-20T03:15:29.233Z,101606.59
2024-02-20T03:20:30.903Z,101605.72
2024-02-20T03:25:32.814Z,101608.25
2024-02-20T03:30:34.505Z,101613.34
2024-02-20T03:35:37.467Z,101625.19
2024-02-20T03:40:39.060Z,101638.72
2024-02-20T03:45:40.781Z,101643.78
2024-02-20T03:50:42.546Z,101649.72
2024-02-20T03:55:44.163Z,101657.34
2024-02-20T04:00:45.789Z,101654.81
2024-02-20T04:05:49.217Z,101660.72
2024-02-20T04:10:50.994Z,101665.78
2024-02-20T04:15:53.555Z,101670.84
2024-02-20T04:20:55.442Z,101676.78
2024-02-20T04:25:57.142Z,101685.19
2024-02-20T04:30:58.792Z,101686.88
2024-02-20T04:36:00.421Z,101699.56
2024-02-20T04:41:02.306Z,101697.88
2024-02-20T04:46:06.939Z,101702.94
2024-02-20T04:51:08.608Z,101696.19
2024-02-20T04:56:10.089Z,101697.84
2024-02-20T05:01:11.682Z,101705.47
2024-02-20T05:06:13.569Z,101717.31
2024-02-20T05:11:15.170Z,101714.78
2024-02-20T05:16:16.948Z,101718.16
2024-02-20T05:21:18.602Z,101707.16
2024-02-20T05:26:20.235Z,101713.09
2024-02-20T05:31:29.633Z,101714.72
2024-02-20T05:36:32.645Z,101723.19
2024-02-20T05:41:34.565Z,101718.13
2024-02-20T05:46:38.574Z,101724.84
2024-02-20T05:51:40.212Z,101721.47
2024-02-20T05:56:44.844Z,101728.25
2024-02-20T06:01:46.926Z,101728.25
2024-02-20T06:06:48.643Z,101741.78
2024-02-20T06:11:50.361Z,101732.44
2024-02-20T06:16:51.990Z,101739.19
2024-02-20T06:21:53.620Z,101752.72
2024-02-20T06:26:55.650Z,101751.88
2024-02-20T06:32:54.218Z,101748.50
2024-02-20T06:37:55.873Z,101752.75
2024-02-20T06:42:57.481Z,101756.97
2024-02-20T06:47:59.112Z,101765.44
2024-02-20T06:53:02.056Z,101762.88
2024-02-20T06:58:04.043Z,101772.19
2024-02-20T07:03:08.708Z,101777.28
2024-02-20T07:08:11.101Z,101779.84
2024-02-20T07:13:13.043Z,101784.94
2024-02-20T07:18:14.772Z,101799.31
2024-02-20T07:23:16.370Z,101801.00
2024-02-20T07:28:18.582Z,101802.75
2024-02-20T07:33:30.605Z,101805.28
2024-02-20T07:38:37.513Z,101812.09
2024-02-20T07:43:42.878Z,101816.38
2024-02-20T07:48:44.604Z,101823.16
2024-02-20T07:53:46.247Z,101827.34
2024-02-20T07:58:48.319Z,101830.69
2024-02-20T08:03:51.450Z,101831.59
2024-02-20T08:08:53.045Z,101827.34
2024-02-20T08:13:54.686Z,101833.31
2024-02-20T08:18:56.413Z,101829.94
2024-02-20T08:24:00.010Z,101832.50
2024-02-20T08:29:04.364Z,101838.41
2024-02-20T08:34:07.346Z,101834.00
2024-02-20T08:39:10.207Z,101837.25
2024-02-20T08:44:12.070Z,101826.56
2024-02-20T08:49:14.357Z,101835.16
2024-02-20T08:54:15.904Z,101834.22
2024-02-20T08:59:17.772Z,101836.84
2024-02-20T09:04:19.845Z,101846.41
2024-02-20T09:09:24.219Z,101848.03
2024-02-20T09:14:25.813Z,101851.94
2024-02-20T09:19:27.571Z,101856.69
2024-02-20T09:24:29.486Z,101856.75
2024-02-20T09:29:32.724Z,101853.00
2024-02-20T09:34:35.100Z,101850.41
2024-02-20T09:39:36.805Z,101846.59
2024-02-20T09:44:42.583Z,101849.34
2024-02-20T09:49:44.813Z,101856.97
2024-02-20T09:54:48.345Z,101851.81
2024-02-20T09:59:49.916Z,101859.38
2024-02-20T10:04:53.633Z,101856.56
2024-02-20T10:09:56.018Z,101851.25
2024-02-20T10:15:06.187Z,101845.97
2024-02-20T10:20:13.382Z,101849.31
2024-02-20T10:25:15.749Z,101859.09
2024-02-20T10:30:17.767Z,101850.47
2024-02-20T10:35:20.880Z,101850.28
2024-02-20T10:40:27.641Z,101851.28
2024-02-20T10:45:30.546Z,101855.06
2024-02-20T10:50:35.636Z,101844.44
2024-02-20T10:55:38.053Z,101842.94
2024-02-20T11:00:41.552Z,101843.31
2024-02-20T11:05:44.747Z,101839.22
2024-02-20T11:10:46.559Z,101820.91
2024-02-20T11:15:48.815Z,101818.84
2024-02-20T11:21:04.453Z,101811.84
2024-02-20T11:26:10.744Z,101816.06
2024-02-20T11:31:15.492Z,101810.44
2024-02-20T11:36:17.558Z,101810.50
2024-02-20T11:41:19.210Z,101806.75
2024-02-20T11:46:21.241Z,101803.19
2024-02-20T11:51:24.494Z,101795.59
2024-02-20T11:56:26.138Z,101789.66
2024-02-20T12:01:30.343Z,101788.47
2024-02-20T12:06:33.894Z,101780.78
2024-02-20T12:11:50.729Z,101766.47
2024-02-20T12:16:58.860Z,101770.47
2024-02-20T12:22:05.044Z,101759.19
2024-02-20T12:27:06.734Z,101752.22
2024-02-20T12:32:09.427Z,101749.69
2024-02-20T12:37:11.122Z,101744.63
2024-02-20T12:42:13.032Z,101735.19
2024-02-20T12:47:15.416Z,101734.47
2024-02-20T12:52:17.357Z,101732.31
2024-02-20T12:57:19.117Z,101729.53
2024-02-20T13:02:20.796Z,101727.41
2024-02-20T13:07:22.503Z,101713.44
2024-02-20T13:12:26.856Z,101716.19
2024-02-20T13:17:28.664Z,101702.81
2024-02-20T13:22:31.148Z,101698.34
2024-02-20T13:27:33.909Z,101688.53
2024-02-20T13:32:35.522Z,101685.28
2024-02-20T13:37:38.666Z,101678.22
2024-02-20T13:42:40.555Z,101669.84
2024-02-20T13:47:42.309Z,101669.53
2024-02-20T13:52:46.016Z,101662.38
2024-02-20T13:57:47.625Z,101658.16
2024-02-20T14:02:49.149Z,101648.06
2024-02-20T14:07:50.746Z,101647.63
2024-02-20T14:12:52.359Z,101652.09
2024-02-20T14:17:54.643Z,101656.31
2024-02-20T14:22:56.358Z,101651.16
2024-02-20T14:27:58.362Z,101660.22
2024-02-20T14:33:04.274Z,101661.22
2024-02-20T14:38:09.048Z,101654.09
2024-02-20T14:43:13.460Z,101651.72
2024-02-20T14:48:19.114Z,101640.13
2024-02-20T14:53:20.930Z,101637.59
2024-02-20T14:58:26.020Z,101629.28
2024-02-20T15:03:27.649Z,101623.38
2024-02-20T15:08:37.582Z,101624.34
2024-02-20T15:13:41.963Z,101609.38
2024-02-20T15:18:45.723Z,101602.88
2024-02-20T15:23:47.569Z,101594.34
2024-02-20T15:28:51.456Z,101599.69
2024-02-20T15:33:57.840Z,101588.75
2024-02-20T15:38:59.805Z,101582.75
2024-02-20T15:44:02.075Z,101589.72
2024-02-20T15:49:07.372Z,101604.28
2024-02-20T15:54:09.947Z,101605.22
2024-02-20T15:59:12.158Z,101589.13
2024-02-20T16:04:14.599Z,101583.34
2024-02-20T16:09:16.716Z,101584.31
2024-02-20T16:14:18.309Z,101581.91
2024-02-20T16:19:20.943Z,101589.63
2024-02-20T16:24:22.941Z,101582.06
2024-02-20T16:29:26.877Z,101584.78
2024-02-20T16:34:30.959Z,101586.66
2024-02-20T16:39:32.741Z,101591.03
2024-02-20T16:44:34.274Z,101601.38
2024-02-20T16:49:36.176Z,101601.50
2024-02-20T16:54:39.413Z,101605.00
2024-02-20T16:59:41.819Z,101601.72
2024-02-20T17:04:45.570Z,101595.91
2024-02-20T17:09:48.545Z,101598.53
2024-02-20T17:14:50.171Z,101599.44
2024-02-20T17:19:54.724Z,101600.38
2024-02-20T17:24:56.351Z,101604.69
2024-02-20T17:29:59.392Z,101617.44
2024-02-20T17:35:02.727Z,101614.13
2024-02-20T17:40:04.764Z,101613.31
2024-02-20T17:45:06.735Z,101614.22
2024-02-20T17:50:08.744Z,101606.59
2024-02-20T17:55:10.311Z,101610.91
2024-02-20T18:00:30.994Z,101614.38
2024-02-20T18:05:32.527Z,101611.91
2024-02-20T18:10:34.158Z,101621.25
2024-02-20T18:15:35.980Z,101618.75
2024-02-20T18:20:37.856Z,101624.72
2024-02-20T18:25:39.546Z,101625.63
2024-02-20T18:30:41.256Z,101611.28
2024-02-20T18:35:43.158Z,101615.50
2024-02-20T18:40:45.964Z,101609.59
2024-02-20T18:45:47.860Z,101607.94
2024-02-20T18:50:50.022Z,101613.88
2024-02-20T18:55:54.638Z,101600.38
2024-02-20T19:00:56.255Z,101603.88
2024-02-20T19:05:59.000Z,101609.84
2024-02-20T19:11:00.878Z,101596.34
2024-02-20T19:16:03.855Z,101597.22
2024-02-20T19:21:05.610Z,101587.06
2024-02-20T19:26:07.306Z,101589.63
2024-02-20T19:31:09.455Z,101583.72
2024-02-20T19:36:11.025Z,101585.41
2024-02-20T19:41:13.154Z,101585.41
2024-02-20T19:46:14.757Z,101576.94
2024-02-20T19:51:16.315Z,101572.72
2024-02-20T19:56:17.935Z,101563.41
2024-02-20T20:01:19.652Z,101558.31
2024-02-20T20:06:21.231Z,101564.25
2024-02-20T20:11:23.883Z,101569.34
2024-02-20T20:16:25.768Z,101567.69
2024-02-20T20:21:27.370Z,101565.19
2024-02-20T20:26:29.380Z,101559.25
2024-02-20T20:31:32.624Z,101559.22
2024-02-20T20:36:35.962Z,101549.09
2024-02-20T20:41:38.866Z,101536.38
2024-02-20T20:46:40.492Z,101542.28
2024-02-20T20:51:42.033Z,101523.69
2024-02-20T20:56:43.748Z,101533.84
2024-02-20T21:01:49.463Z,101540.63
2024-02-20T21:06:51.177Z,101543.19
2024-02-20T21:11:52.814Z,101540.63
2024-02-20T21:16:54.454Z,101537.25
2024-02-20T21:21:56.187Z,101544.84
2024-02-20T21:26:57.993Z,101536.38
2024-02-20T21:31:59.783Z,101542.28
2024-02-20T21:37:01.388Z,101539.75
2024-02-20T21:42:03.035Z,101546.47
2024-02-20T21:47:04.646Z,101540.59
2024-02-20T21:52:06.494Z,101535.47
2024-02-20T21:57:08.334Z,101535.50
2024-02-20T22:02:10.452Z,101537.22
2024-02-20T22:07:12.952Z,101537.22
2024-02-20T22:12:15.937Z,101543.13
2024-02-20T22:17:17.517Z,101551.56
2024-02-20T22:22:19.138Z,101535.50
2024-02-20T22:27:20.763Z,101536.38
2024-02-20T22:32:22.401Z,101542.28
2024-02-20T22:37:24.115Z,101530.47
2024-02-20T22:42:25.727Z,101532.16
2024-02-20T22:47:27.248Z,101510.22
2024-02-20T22:52:28.818Z,101518.66
2024-02-20T22:57:31.109Z,101513.59
2024-02-20T23:02:32.766Z,101522.88
2024-02-20T23:07:34.485Z,101532.19
2024-02-20T23:12:36.313Z,101522.88
2024-02-20T23:17:38.367Z,101526.25
2024-02-20T23:22:41.270Z,101516.97
2024-02-20T23:27:43.060Z,101517.81
2024-02-20T23:32:44.674Z,101514.44
2024-02-20T23:37:52.152Z,101511.03
2024-02-20T23:42:53.872Z,101509.34
2024-02-20T23:47:55.587Z,101501.72
2024-02-20T23:52:57.271Z,101500.03
2024-02-20T23:57:58.967Z,101503.41
